createdAt,value
2023-04-15T00:01:01.294Z,91.85
2023-04-15T00:03:28.722Z,92.28
2023-04-15T00:05:55.540Z,92.25
2023-04-15T00:08:22.172Z,92.34
2023-04-15T00:10:49.437Z,92.31
2023-04-15T00:13:16.617Z,92.11
2023-04-15T00:15:43.421Z,91.87
2023-04-15T00:18:10.050Z,92.02
2023-04-15T00:20:37.262Z,92.49
2023-04-15T00:23:04.237Z,92.08
2023-04-15T00:25:31.135Z,92.47
2023-04-15T00:27:57.785Z,92.68
2023-04-15T00:30:24.361Z,92.54
2023-04-15T00:32:51.056Z,92.85
2023-04-15T00:35:18.253Z,92.93
2023-04-15T00:37:46.174Z,92.88
2023-04-15T00:40:13.990Z,92.83
2023-04-15T00:42:40.987Z,92.13
2023-04-15T00:45:08.938Z,92.54
2023-04-15T00:47:37.671Z,92.72
2023-04-15T00:50:05.054Z,92.46
2023-04-15T00:52:32.097Z,93.21
2023-04-15T00:54:59.526Z,92.84
2023-04-15T00:57:27.127Z,92.53
2023-04-15T00:59:53.891Z,92.39
2023-04-15T01:02:21.288Z,92.74
2023-04-15T01:04:48.081Z,92.97
2023-04-15T01:07:14.716Z,92.45
2023-04-15T01:09:42.269Z,92.87
2023-04-15T01:12:12.077Z,92.70
2023-04-15T01:14:38.826Z,92.45
2023-04-15T01:17:05.400Z,92.68
2023-04-15T01:19:32.183Z,92.43
2023-04-15T01:21:59.112Z,92.18
2023-04-15T01:24:28.059Z,92.43
2023-04-15T01:26:54.622Z,92.43
2023-04-15T01:29:21.451Z,92.47
2023-04-15T01:31:52.713Z,93.21
2023-04-15T01:34:19.664Z,93.20
2023-04-15T01:36:46.871Z,93.24
2023-04-15T01:39:13.694Z,93.61
2023-04-15T01:41:42.296Z,93.48
2023-04-15T01:44:09.187Z,93.51
2023-04-15T01:46:36.462Z,93.69
2023-04-15T01:49:03.332Z,93.17
2023-04-15T01:51:29.931Z,93.66
2023-04-15T01:53:57.707Z,93.71
2023-04-15T01:56:24.578Z,93.50
2023-04-15T01:58:51.796Z,93.48
2023-04-15T02:01:20.075Z,93.71
2023-04-15T02:03:48.044Z,93.71
2023-04-15T02:06:14.947Z,93.84
2023-04-15T02:08:41.531Z,93.71
2023-04-15T02:11:08.487Z,93.76
2023-04-15T02:13:35.153Z,93.41
2023-04-15T02:16:01.877Z,93.87
2023-04-15T02:18:28.616Z,93.36
2023-04-15T02:20:57.336Z,92.92
2023-04-15T02:23:24.592Z,92.99
2023-04-15T02:25:53.346Z,93.43
2023-04-15T02:28:20.514Z,92.58
2023-04-15T02:30:52.782Z,92.58
2023-04-15T02:33:20.209Z,92.72
2023-04-15T02:35:47.338Z,92.92
2023-04-15T02:38:14.825Z,93.18
2023-04-15T02:40:41.607Z,92.95
2023-04-15T02:43:08.177Z,92.78
2023-04-15T02:45:34.840Z,92.40
2023-04-15T02:48:06.235Z,92.95
2023-04-15T02:50:33.167Z,92.88
2023-04-15T02:53:01.540Z,92.53
2023-04-15T02:55:29.152Z,92.51
2023-04-15T02:57:55.984Z,92.25
2023-04-15T03:00:25.218Z,92.45
2023-04-15T03:02:56.587Z,92.51
2023-04-15T03:05:26.535Z,92.36
2023-04-15T03:07:53.883Z,92.43
2023-04-15T03:10:21.582Z,92.35
2023-04-15T03:12:48.570Z,92.52
2023-04-15T03:15:15.635Z,92.07
2023-04-15T03:17:42.274Z,92.12
2023-04-15T03:20:09.624Z,91.73
2023-04-15T03:22:36.298Z,92.19
2023-04-15T03:25:02.890Z,92.02
2023-04-15T03:27:29.396Z,92.11
2023-04-15T03:29:56.851Z,92.11
2023-04-15T03:32:23.502Z,91.72
2023-04-15T03:34:50.296Z,91.70
2023-04-15T03:37:16.852Z,92.34
2023-04-15T03:39:43.394Z,92.45
2023-04-15T03:42:09.961Z,91.69
2023-04-15T03:44:37.196Z,91.66
2023-04-15T03:47:03.762Z,92.41
2023-04-15T03:49:30.514Z,92.33
2023-04-15T03:51:57.423Z,92.42
2023-04-15T03:54:23.940Z,92.83
2023-04-15T03:56:50.500Z,93.31
2023-04-15T03:59:17.051Z,93.16
2023-04-15T04:01:43.685Z,92.75
2023-04-15T04:04:10.881Z,92.90
2023-04-15T04:06:37.696Z,92.65
2023-04-15T04:09:04.241Z,93.00
2023-04-15T04:11:31.778Z,93.14
2023-04-15T04:13:58.337Z,93.65
2023-04-15T04:16:25.039Z,92.98
2023-04-15T04:18:51.632Z,93.33
2023-04-15T04:21:18.288Z,92.83
2023-04-15T04:23:44.901Z,93.46
2023-04-15T04:26:11.483Z,93.34
2023-04-15T04:28:40.638Z,93.25
2023-04-15T04:31:07.861Z,93.83
2023-04-15T04:33:34.564Z,92.97
2023-04-15T04:36:01.471Z,93.66
2023-04-15T04:38:28.103Z,93.26
2023-04-15T04:40:54.695Z,93.68
2023-04-15T04:43:21.717Z,93.29
2023-04-15T04:45:48.291Z,93.23
2023-04-15T04:48:14.868Z,93.70
2023-04-15T04:50:41.971Z,93.46
2023-04-15T04:53:08.641Z,93.95
2023-04-15T04:55:36.984Z,93.96
2023-04-15T04:58:03.482Z,94.04
2023-04-15T05:00:30.393Z,94.09
2023-04-15T05:02:57.144Z,93.96
2023-04-15T05:05:23.798Z,93.79
2023-04-15T05:07:50.735Z,93.89
2023-04-15T05:10:18.310Z,94.05
2023-04-15T05:12:45.031Z,93.65
2023-04-15T05:15:12.181Z,93.51
2023-04-15T05:17:38.848Z,93.37
2023-04-15T05:20:05.978Z,93.43
2023-04-15T05:22:32.702Z,93.91
2023-04-15T05:24:59.385Z,93.97
2023-04-15T05:27:26.023Z,93.89
2023-04-15T05:29:52.636Z,93.63
2023-04-15T05:32:19.261Z,93.56
2023-04-15T05:34:45.872Z,93.26
2023-04-15T05:37:12.813Z,93.85
2023-04-15T05:39:39.325Z,93.78
2023-04-15T05:42:06.215Z,93.87
2023-04-15T05:44:32.992Z,93.38
2023-04-15T05:46:59.612Z,93.80
2023-04-15T05:49:26.185Z,93.38
2023-04-15T05:51:52.859Z,93.19
2023-04-15T05:54:20.308Z,92.97
2023-04-15T05:56:46.983Z,92.70
2023-04-15T05:59:13.563Z,92.80
2023-04-15T06:01:40.296Z,93.03
2023-04-15T06:04:07.118Z,92.85
2023-04-15T06:06:33.732Z,92.59
2023-04-15T06:09:00.646Z,92.93
2023-04-15T06:11:27.424Z,92.31
2023-04-15T06:13:54.070Z,91.60
2023-04-15T06:16:20.660Z,92.09
2023-04-15T06:18:47.211Z,91.79
2023-04-15T06:21:13.920Z,91.97
2023-04-15T06:23:41.399Z,91.67
2023-04-15T06:26:08.501Z,91.56
2023-04-15T06:28:35.337Z,91.85
2023-04-15T06:31:02.027Z,91.82
2023-04-15T06:33:28.826Z,91.21
2023-04-15T06:35:55.409Z,90.81
2023-04-15T06:38:22.028Z,91.08
2023-04-15T06:40:48.581Z,91.37
2023-04-15T06:43:15.440Z,90.69
2023-04-15T06:45:41.963Z,91.10
2023-04-15T06:48:08.505Z,90.88
2023-04-15T06:50:35.796Z,91.09
2023-04-15T06:53:03.088Z,91.42
2023-04-15T06:55:29.832Z,90.55
2023-04-15T06:57:56.541Z,90.59
2023-04-15T07:00:23.350Z,89.84
2023-04-15T07:02:49.987Z,89.37
2023-04-15T07:05:16.740Z,89.43
2023-04-15T07:07:43.376Z,88.91
2023-04-15T07:10:11.965Z,89.63
2023-04-15T07:12:38.576Z,88.60
2023-04-15T07:15:05.754Z,87.97
2023-04-15T07:17:32.404Z,88.43
2023-04-15T07:19:59.013Z,87.63
2023-04-15T07:22:27.441Z,87.80
2023-04-15T07:24:54.011Z,87.98
2023-04-15T07:27:21.023Z,87.92
2023-04-15T07:29:48.319Z,87.83
2023-04-15T07:32:14.831Z,87.72
2023-04-15T07:34:42.242Z,87.98
2023-04-15T07:37:09.404Z,86.80
2023-04-15T07:39:36.000Z,86.40
2023-04-15T07:42:03.925Z,86.60
2023-04-15T07:44:30.517Z,86.09
2023-04-15T07:46:57.311Z,84.96
2023-04-15T07:49:23.872Z,85.50
2023-04-15T07:51:51.112Z,85.29
2023-04-15T07:54:17.656Z,86.29
2023-04-15T07:56:44.222Z,84.72
2023-04-15T07:59:11.656Z,84.58
2023-04-15T08:01:38.991Z,84.56
2023-04-15T08:04:05.758Z,83.73
2023-04-15T08:06:33.253Z,84.18
2023-04-15T08:09:00.204Z,85.57
2023-04-15T08:11:27.852Z,85.31
2023-04-15T08:13:54.475Z,84.34
2023-04-15T08:16:27.615Z,85.10
2023-04-15T08:18:57.790Z,80.47
2023-04-15T08:21:25.041Z,80.26
2023-04-15T08:23:53.401Z,82.20
2023-04-15T08:26:21.326Z,81.52
2023-04-15T08:28:49.288Z,80.70
2023-04-15T08:31:17.506Z,78.99
2023-04-15T08:33:44.512Z,79.38
2023-04-15T08:36:11.055Z,78.47
2023-04-15T08:38:38.079Z,78.26
2023-04-15T08:41:12.342Z,78.61
2023-04-15T08:43:50.665Z,80.13
2023-04-15T08:46:17.796Z,79.58
2023-04-15T08:48:45.672Z,79.99
2023-04-15T08:51:16.053Z,78.85
2023-04-15T08:53:47.507Z,78.69
2023-04-15T08:56:16.894Z,80.27
2023-04-15T08:58:47.138Z,79.40
2023-04-15T09:01:13.910Z,77.74
2023-04-15T09:03:42.095Z,76.67
2023-04-15T09:06:09.058Z,75.76
2023-04-15T09:08:35.940Z,75.65
2023-04-15T09:11:05.784Z,76.91
2023-04-15T09:13:32.277Z,76.29
2023-04-15T09:15:58.828Z,75.15
2023-04-15T09:18:31.136Z,74.56
2023-04-15T09:21:08.954Z,76.78
2023-04-15T09:23:36.311Z,77.25
2023-04-15T09:26:03.779Z,76.07
2023-04-15T09:28:31.057Z,76.39
2023-04-15T09:31:01.798Z,74.62
2023-04-15T09:33:30.241Z,76.18
2023-04-15T09:36:05.628Z,76.65
2023-04-15T09:38:32.576Z,75.64
2023-04-15T09:40:59.691Z,75.77
2023-04-15T09:43:40.817Z,71.14
2023-04-15T09:46:07.533Z,75.26
2023-04-15T09:48:34.073Z,75.97
2023-04-15T09:51:02.171Z,76.00
2023-04-15T09:53:30.570Z,75.51
2023-04-15T09:56:03.380Z,73.47
2023-04-15T09:58:34.868Z,71.96
2023-04-15T10:01:04.620Z,69.49
2023-04-15T10:03:36.887Z,69.49
2023-04-15T10:06:05.613Z,72.26
2023-04-15T10:08:34.969Z,72.31
2023-04-15T10:11:05.492Z,69.90
2023-04-15T10:13:37.405Z,71.83
2023-04-15T10:16:11.945Z,68.02
2023-04-15T10:18:42.890Z,70.18
2023-04-15T10:21:09.510Z,70.48
2023-04-15T10:23:36.802Z,71.22
2023-04-15T10:26:04.854Z,71.40
2023-04-15T10:28:31.496Z,70.14
2023-04-15T10:30:59.862Z,70.41
2023-04-15T10:33:27.806Z,69.56
2023-04-15T10:35:56.155Z,70.38
2023-04-15T10:38:43.391Z,69.74
2023-04-15T10:41:17.776Z,69.77
2023-04-15T10:43:57.905Z,66.90
2023-04-15T10:46:35.280Z,70.26
2023-04-15T10:49:13.442Z,65.32
2023-04-15T10:51:42.717Z,66.64
2023-04-15T10:54:14.913Z,67.69
2023-04-15T10:56:45.381Z,69.85
2023-04-15T10:59:11.992Z,69.27
2023-04-15T11:01:53.256Z,68.22
2023-04-15T11:04:51.575Z,68.01
2023-04-15T11:07:40.002Z,66.82
2023-04-15T11:10:32.450Z,67.49
2023-04-15T11:13:02.280Z,70.78
2023-04-15T11:15:33.189Z,71.58
2023-04-15T11:18:10.124Z,71.48
2023-04-15T11:20:38.191Z,71.76
2023-04-15T11:23:13.907Z,72.31
2023-04-15T11:25:43.215Z,73.67
2023-04-15T11:28:11.439Z,72.49
2023-04-15T11:30:39.655Z,72.62
2023-04-15T11:33:09.260Z,70.92
2023-04-15T11:35:36.685Z,69.05
2023-04-15T11:38:05.340Z,69.33
2023-04-15T11:40:33.530Z,67.92
2023-04-15T11:43:15.846Z,63.10
2023-04-15T11:45:58.105Z,62.56
2023-04-15T11:48:35.810Z,66.71
2023-04-15T11:51:04.305Z,66.17
2023-04-15T11:53:44.129Z,65.66
2023-04-15T11:56:17.187Z,66.11
2023-04-15T11:58:44.791Z,64.35
2023-04-15T12:01:11.883Z,62.35
2023-04-15T12:03:41.421Z,64.22
2023-04-15T12:06:21.306Z,64.82
2023-04-15T12:08:49.420Z,65.09
2023-04-15T12:11:17.053Z,64.04
2023-04-15T12:13:51.356Z,62.75
2023-04-15T12:16:21.805Z,62.25
2023-04-15T12:18:52.323Z,63.94
2023-04-15T12:21:34.575Z,60.22
2023-04-15T12:24:04.821Z,58.70
2023-04-15T12:26:37.540Z,56.79
2023-04-15T12:29:08.552Z,57.60
2023-04-15T12:31:47.346Z,57.56
2023-04-15T12:34:14.635Z,57.01
2023-04-15T12:36:41.224Z,57.45
2023-04-15T12:39:07.772Z,60.78
2023-04-15T12:41:34.358Z,63.52
2023-04-15T12:44:01.505Z,61.75
2023-04-15T12:46:28.513Z,59.97
2023-04-15T12:48:55.151Z,61.34
2023-04-15T12:51:21.832Z,61.70
2023-04-15T12:53:49.674Z,62.33
2023-04-15T12:56:17.044Z,61.24
2023-04-15T12:58:43.626Z,59.77
2023-04-15T13:01:11.217Z,59.23
2023-04-15T13:03:37.992Z,58.20
2023-04-15T13:06:05.172Z,60.42
2023-04-15T13:08:32.138Z,60.34
2023-04-15T13:10:58.814Z,57.67
2023-04-15T13:13:25.665Z,59.29
2023-04-15T13:15:52.221Z,60.25
2023-04-15T13:18:19.061Z,58.58
2023-04-15T13:20:45.581Z,58.32
2023-04-15T13:23:12.362Z,56.56
2023-04-15T13:25:38.899Z,55.15
2023-04-15T13:28:05.510Z,58.54
2023-04-15T13:30:32.332Z,58.28
2023-04-15T13:32:59.142Z,58.62
2023-04-15T13:35:25.864Z,57.97
2023-04-15T13:37:54.020Z,56.44
2023-04-15T13:40:20.577Z,55.85
2023-04-15T13:42:47.195Z,53.82
2023-04-15T13:45:13.912Z,54.34
2023-04-15T13:47:40.659Z,57.13
2023-04-15T13:50:07.749Z,54.38
2023-04-15T13:52:34.311Z,53.53
2023-04-15T13:55:07.460Z,51.00
2023-04-15T13:57:47.387Z,55.06
2023-04-15T14:00:14.581Z,55.66
2023-04-15T14:02:42.314Z,55.94
2023-04-15T14:05:09.483Z,55.65
2023-04-15T14:07:36.595Z,55.07
2023-04-15T14:10:04.036Z,55.47
2023-04-15T14:12:30.780Z,53.32
2023-04-15T14:14:57.358Z,56.01
2023-04-15T14:17:24.004Z,53.03
2023-04-15T14:19:50.678Z,53.53
2023-04-15T14:22:18.910Z,56.66
2023-04-15T14:24:45.725Z,56.72
2023-04-15T14:27:12.588Z,56.16
2023-04-15T14:29:39.176Z,53.68
2023-04-15T14:32:12.157Z,55.70
2023-04-15T14:34:39.617Z,53.09
2023-04-15T14:37:06.432Z,49.94
2023-04-15T14:39:33.015Z,54.37
2023-04-15T14:41:59.582Z,53.94
2023-04-15T14:44:26.079Z,55.37
2023-04-15T14:46:52.792Z,55.41
2023-04-15T14:49:19.783Z,56.07
2023-04-15T14:51:46.496Z,51.07
2023-04-15T14:54:13.089Z,53.49
2023-04-15T14:56:39.702Z,54.67
2023-04-15T14:59:06.319Z,54.27
2023-04-15T15:01:33.826Z,53.76
2023-04-15T15:04:00.745Z,54.51
2023-04-15T15:06:27.842Z,55.10
2023-04-15T15:08:54.420Z,53.90
2023-04-15T15:11:21.157Z,55.78
2023-04-15T15:13:47.719Z,55.21
2023-04-15T15:16:14.822Z,54.97
2023-04-15T15:18:41.556Z,56.12
2023-04-15T15:21:08.075Z,54.27
2023-04-15T15:23:34.622Z,53.37
2023-04-15T15:26:01.280Z,54.14
2023-04-15T15:28:27.850Z,54.48
2023-04-15T15:30:54.735Z,53.85
2023-04-15T15:33:21.641Z,55.17
2023-04-15T15:35:48.226Z,56.30
2023-04-15T15:38:14.930Z,54.48
2023-04-15T15:40:41.577Z,55.28
2023-04-15T15:43:08.192Z,55.58
2023-04-15T15:45:35.896Z,55.90
2023-04-15T15:48:02.781Z,55.19
2023-04-15T15:50:29.410Z,54.55
2023-04-15T15:52:56.128Z,52.98
2023-04-15T15:55:23.412Z,54.64
2023-04-15T15:57:50.069Z,54.61
2023-04-15T16:00:17.167Z,54.19
2023-04-15T16:05:13.571Z,56.61
2023-04-15T16:07:40.108Z,56.66
2023-04-15T16:10:07.304Z,56.77
2023-04-15T16:12:35.025Z,57.16
2023-04-15T16:15:01.855Z,57.69
2023-04-15T16:17:28.436Z,57.69
2023-04-15T16:19:57.932Z,57.02
2023-04-15T16:22:27.409Z,58.08
2023-04-15T16:24:54.095Z,57.79
2023-04-15T16:27:20.906Z,58.93
2023-04-15T16:29:47.476Z,59.86
2023-04-15T16:32:14.139Z,60.71
2023-04-15T16:34:41.342Z,60.97
2023-04-15T16:37:08.107Z,60.77
2023-04-15T16:39:34.764Z,61.43
2023-04-15T16:42:02.564Z,61.26
2023-04-15T16:44:29.304Z,61.89
2023-04-15T16:46:56.398Z,62.63
2023-04-15T16:49:22.937Z,61.90
2023-04-15T16:51:49.528Z,63.16
2023-04-15T16:54:16.240Z,63.20
2023-04-15T16:56:42.781Z,63.16
2023-04-15T16:59:09.300Z,63.70
2023-04-15T17:01:36.232Z,64.03
2023-04-15T17:04:02.980Z,63.53
2023-04-15T17:06:30.726Z,65.27
2023-04-15T17:08:57.263Z,65.49
2023-04-15T17:11:23.807Z,66.09
2023-04-15T17:13:50.967Z,66.57
2023-04-15T17:16:17.562Z,66.22
2023-04-15T17:18:44.612Z,66.42
2023-04-15T17:21:11.253Z,67.97
2023-04-15T17:23:37.823Z,67.41
2023-04-15T17:26:04.376Z,68.60
2023-04-15T17:28:30.947Z,69.49
2023-04-15T17:30:57.610Z,71.03
2023-04-15T17:33:55.427Z,71.44
2023-04-15T17:36:11.164Z,71.10
2023-04-15T17:38:37.717Z,71.94
2023-04-15T17:41:04.818Z,72.24
2023-04-15T17:43:31.978Z,73.15
2023-04-15T17:45:58.828Z,73.62
2023-04-15T17:48:26.128Z,74.54
2023-04-15T17:50:52.680Z,74.74
2023-04-15T17:53:19.263Z,75.21
2023-04-15T17:55:46.469Z,75.54
2023-04-15T17:58:13.039Z,75.95
2023-04-15T18:00:39.580Z,75.56
2023-04-15T18:03:06.270Z,75.02
2023-04-15T18:05:32.948Z,76.03
2023-04-15T18:07:59.542Z,75.77
2023-04-15T18:10:26.104Z,75.60
2023-04-15T18:12:52.672Z,75.71
2023-04-15T18:15:19.198Z,76.37
2023-04-15T18:17:46.298Z,76.72
2023-04-15T18:20:13.030Z,76.33
2023-04-15T18:22:39.612Z,76.71
2023-04-15T18:25:06.934Z,76.32
2023-04-15T18:27:34.539Z,75.59
2023-04-15T18:30:01.189Z,75.96
2023-04-15T18:32:31.684Z,76.67
2023-04-15T18:34:58.465Z,76.70
2023-04-15T18:37:26.184Z,76.83
2023-04-15T18:39:54.112Z,76.96
2023-04-15T18:42:21.162Z,76.82
2023-04-15T18:44:48.208Z,77.73
2023-04-15T18:47:15.355Z,77.80
2023-04-15T18:49:42.046Z,78.51
2023-04-15T18:52:12.160Z,78.13
2023-04-15T18:54:38.675Z,78.35
2023-04-15T18:57:06.458Z,78.37
2023-04-15T18:59:33.661Z,77.47
2023-04-15T19:02:00.463Z,77.26
2023-04-15T19:04:29.329Z,76.54
2023-04-15T19:06:56.316Z,76.21
2023-04-15T19:09:22.947Z,76.53
2023-04-15T19:11:49.477Z,76.30
2023-04-15T19:14:17.315Z,76.03
2023-04-15T19:16:43.830Z,76.07
2023-04-15T19:19:10.434Z,76.14
2023-04-15T19:21:37.013Z,76.69
2023-04-15T19:24:03.656Z,77.02
2023-04-15T19:26:30.508Z,76.63
2023-04-15T19:28:58.896Z,76.57
2023-04-15T19:31:26.257Z,76.83
2023-04-15T19:33:53.024Z,76.53
2023-04-15T19:36:19.663Z,76.84
2023-04-15T19:38:46.203Z,77.02
2023-04-15T19:41:13.099Z,79.52
2023-04-15T19:43:39.628Z,79.48
2023-04-15T19:46:07.000Z,79.32
2023-04-15T19:48:33.599Z,79.12
2023-04-15T19:51:00.589Z,79.10
2023-04-15T19:53:27.210Z,78.66
2023-04-15T19:55:53.718Z,79.77
2023-04-15T19:58:20.287Z,80.56
2023-04-15T20:00:46.945Z,80.43
2023-04-15T20:03:13.790Z,81.00
2023-04-15T20:05:40.433Z,81.45
2023-04-15T20:08:06.949Z,81.60
2023-04-15T20:10:33.606Z,81.87
2023-04-15T20:13:00.205Z,81.46
2023-04-15T20:15:27.322Z,81.41
2023-04-15T20:17:54.201Z,81.97
2023-04-15T20:20:21.566Z,82.15
2023-04-15T20:22:48.492Z,82.62
2023-04-15T20:25:15.201Z,82.44
2023-04-15T20:27:41.750Z,82.65
2023-04-15T20:30:08.757Z,82.27
2023-04-15T20:32:36.117Z,82.41
2023-04-15T20:35:04.497Z,82.39
2023-04-15T20:37:33.426Z,81.78
2023-04-15T20:40:01.315Z,82.20
2023-04-15T20:42:28.213Z,81.98
2023-04-15T20:44:54.774Z,81.86
2023-04-15T20:47:21.517Z,82.63
2023-04-15T20:49:48.200Z,82.65
2023-04-15T20:52:14.797Z,82.15
2023-04-15T20:54:41.507Z,81.78
2023-04-15T20:57:08.034Z,81.45
2023-04-15T20:59:34.937Z,81.40
2023-04-15T21:02:01.956Z,81.32
2023-04-15T21:04:28.571Z,81.14
2023-04-15T21:06:55.233Z,81.09
2023-04-15T21:09:21.758Z,80.75
2023-04-15T21:14:18.889Z,80.76
2023-04-15T21:16:45.619Z,82.10
2023-04-15T21:19:12.290Z,81.84
2023-04-15T21:21:38.849Z,82.16
2023-04-15T21:24:07.727Z,82.37
2023-04-15T21:26:35.938Z,82.68
2023-04-15T21:29:03.053Z,82.38
2023-04-15T21:31:29.995Z,82.34
2023-04-15T21:33:56.618Z,81.85
2023-04-15T21:36:23.229Z,81.25
2023-04-15T21:38:49.786Z,80.14
2023-04-15T21:41:16.384Z,79.28
2023-04-15T21:43:42.941Z,79.41
2023-04-15T21:46:24.058Z,79.51
2023-04-15T21:48:52.504Z,78.87
2023-04-15T21:51:19.114Z,79.14
2023-04-15T21:53:45.677Z,79.55
2023-04-15T21:56:12.218Z,79.18
2023-04-15T21:58:38.819Z,79.05
2023-04-15T22:01:05.700Z,79.21
2023-04-15T22:03:34.696Z,78.13
2023-04-15T22:06:04.843Z,77.95
2023-04-15T22:08:38.550Z,78.06
2023-04-15T22:11:31.155Z,76.25
2023-04-15T22:13:58.650Z,77.13
2023-04-15T22:16:28.585Z,77.45
2023-04-15T22:18:56.071Z,78.03
2023-04-15T22:21:23.206Z,78.02
2023-04-15T22:23:49.891Z,79.72
2023-04-15T22:26:16.707Z,79.63
2023-04-15T22:28:43.285Z,79.66
2023-04-15T22:31:10.459Z,80.27
2023-04-15T22:33:37.143Z,80.28
2023-04-15T22:36:03.830Z,80.42
2023-04-15T22:38:30.489Z,80.72
2023-04-15T22:40:57.049Z,80.32
2023-04-15T22:43:23.809Z,80.68
2023-04-15T22:45:51.084Z,80.44
2023-04-15T22:48:20.780Z,80.00
2023-04-15T22:50:47.499Z,80.42
2023-04-15T22:53:15.661Z,80.33
2023-04-15T22:55:47.118Z,81.17
2023-04-15T22:58:14.300Z,80.97
2023-04-15T23:00:40.903Z,81.21
2023-04-15T23:03:07.763Z,81.43
2023-04-15T23:05:34.544Z,83.07
2023-04-15T23:08:01.201Z,85.06
2023-04-15T23:10:28.156Z,85.79
2023-04-15T23:12:54.738Z,87.43
2023-04-15T23:15:21.340Z,87.52
2023-04-15T23:17:47.893Z,87.88
2023-04-15T23:20:16.272Z,87.57
2023-04-15T23:22:43.312Z,87.11
2023-04-15T23:25:10.197Z,86.82
2023-04-15T23:27:36.924Z,86.51
2023-04-15T23:30:03.965Z,86.00
2023-04-15T23:32:30.750Z,85.85
2023-04-15T23:34:57.417Z,87.08
2023-04-15T23:37:23.992Z,86.76
2023-04-15T23:39:50.531Z,86.67
2023-04-15T23:42:17.276Z,86.54
2023-04-15T23:44:43.823Z,85.96
2023-04-15T23:47:10.670Z,85.43
2023-04-15T23:49:37.203Z,86.02
2023-04-15T23:52:04.154Z,86.54
2023-04-15T23:54:30.822Z,86.88
2023-04-15T23:56:57.394Z,87.12
2023-04-15T23:59:24.064Z,87.08
